createdAt,value
2023-05-10T00:02:05.199Z,47.56
2023-05-10T00:04:34.255Z,47.34
2023-05-10T00:07:03.272Z,47.54
2023-05-10T00:09:29.962Z,47.97
2023-05-10T00:11:56.604Z,47.50
2023-05-10T00:14:23.324Z,47.95
2023-05-10T00:16:50.138Z,48.35
2023-05-10T00:19:19.514Z,48.42
2023-05-10T00:21:48.417Z,48.41
2023-05-10T00:24:17.634Z,48.40
2023-05-10T00:26:49.316Z,48.97
2023-05-10T00:29:15.911Z,49.05
2023-05-10T00:31:42.543Z,49.26
2023-05-10T00:34:09.998Z,49.04
2023-05-10T00:36:36.581Z,48.99
2023-05-10T00:39:04.972Z,48.87
2023-05-10T00:41:34.772Z,49.62
2023-05-10T00:44:05.263Z,49.74
2023-05-10T00:46:32.093Z,49.93
2023-05-10T00:49:03.401Z,50.23
2023-05-10T00:51:30.160Z,49.96
2023-05-10T00:54:01.661Z,50.10
2023-05-10T00:56:29.633Z,50.49
2023-05-10T00:58:56.625Z,50.27
2023-05-10T01:01:23.757Z,50.29
2023-05-10T01:03:55.846Z,50.32
2023-05-10T01:06:22.499Z,50.46
2023-05-10T01:08:49.155Z,50.76
2023-05-10T01:11:16.202Z,50.61
2023-05-10T01:13:43.807Z,50.79
2023-05-10T01:16:10.511Z,51.52
2023-05-10T01:18:38.056Z,51.56
2023-05-10T01:21:07.864Z,52.15
2023-05-10T01:23:52.836Z,51.86
2023-05-10T01:26:25.275Z,52.23
2023-05-10T01:28:57.624Z,52.41
2023-05-10T01:31:46.115Z,52.40
2023-05-10T01:34:21.746Z,52.08
2023-05-10T01:36:48.406Z,52.72
2023-05-10T01:39:21.770Z,53.03
2023-05-10T01:42:00.635Z,52.47
2023-05-10T01:44:31.007Z,52.86
2023-05-10T01:47:23.969Z,52.53
2023-05-10T01:49:54.018Z,53.63
2023-05-10T01:52:26.036Z,53.40
2023-05-10T01:54:55.654Z,53.26
2023-05-10T01:57:23.044Z,53.26
2023-05-10T01:59:52.185Z,53.11
2023-05-10T02:02:20.109Z,53.17
2023-05-10T02:04:49.141Z,52.96
2023-05-10T02:07:15.828Z,52.71
2023-05-10T02:09:45.410Z,52.80
2023-05-10T02:12:17.219Z,52.97
2023-05-10T02:14:43.821Z,52.75
2023-05-10T02:17:10.766Z,52.81
2023-05-10T02:19:38.312Z,52.52
2023-05-10T02:22:10.412Z,52.28
2023-05-10T02:24:37.236Z,51.98
2023-05-10T02:27:04.049Z,51.70
2023-05-10T02:29:30.714Z,51.65
2023-05-10T02:31:59.756Z,51.27
2023-05-10T02:34:29.067Z,52.03
2023-05-10T02:36:58.605Z,51.70
2023-05-10T02:39:26.024Z,51.33
2023-05-10T02:41:52.723Z,51.51
2023-05-10T02:44:20.223Z,51.29
2023-05-10T02:46:49.505Z,51.69
2023-05-10T02:49:16.417Z,51.75
2023-05-10T02:51:47.793Z,50.84
2023-05-10T02:54:17.000Z,51.14
2023-05-10T02:56:44.671Z,51.80
2023-05-10T02:59:13.549Z,51.28
2023-05-10T03:01:40.371Z,51.56
2023-05-10T03:04:09.624Z,51.14
2023-05-10T03:06:36.259Z,51.06
2023-05-10T03:09:04.418Z,51.17
2023-05-10T03:11:50.498Z,51.07
2023-05-10T03:14:46.706Z,50.56
2023-05-10T03:17:26.194Z,50.96
2023-05-10T03:19:58.766Z,50.86
2023-05-10T03:22:28.846Z,51.10
2023-05-10T03:24:58.670Z,51.21
2023-05-10T03:27:28.429Z,51.17
2023-05-10T03:29:56.200Z,50.59
2023-05-10T03:32:25.631Z,50.65
2023-05-10T03:34:52.246Z,50.93
2023-05-10T03:37:21.429Z,51.62
2023-05-10T03:39:50.460Z,51.39
2023-05-10T03:42:18.889Z,51.60
2023-05-10T03:44:50.554Z,51.41
2023-05-10T03:47:17.754Z,51.12
2023-05-10T03:49:44.499Z,51.15
2023-05-10T03:52:17.055Z,51.26
2023-05-10T03:54:43.730Z,51.44
2023-05-10T03:57:10.720Z,51.69
2023-05-10T03:59:37.479Z,51.36
2023-05-10T04:02:07.002Z,51.34
2023-05-10T04:04:33.761Z,51.06
2023-05-10T04:07:00.445Z,50.97
2023-05-10T04:09:27.428Z,50.57
2023-05-10T04:11:54.069Z,50.98
2023-05-10T04:14:20.722Z,50.99
2023-05-10T04:16:50.195Z,51.43
2023-05-10T04:19:16.853Z,51.20
2023-05-10T04:21:45.742Z,51.15
2023-05-10T04:24:13.532Z,51.18
2023-05-10T04:26:40.222Z,51.12
2023-05-10T04:29:06.802Z,51.00
2023-05-10T04:31:37.398Z,50.95
2023-05-10T04:34:04.088Z,51.23
2023-05-10T04:36:30.761Z,51.57
2023-05-10T04:38:59.772Z,51.21
2023-05-10T04:41:26.451Z,51.31
2023-05-10T04:43:53.108Z,51.27
2023-05-10T04:46:19.828Z,51.35
2023-05-10T04:48:46.601Z,51.39
2023-05-10T04:51:13.396Z,51.62
2023-05-10T04:53:39.981Z,51.04
2023-05-10T04:59:00.225Z,51.43
2023-05-10T05:01:29.758Z,51.12
2023-05-10T05:03:56.590Z,51.39
2023-05-10T05:06:23.401Z,51.20
2023-05-10T05:08:50.830Z,51.48
2023-05-10T05:11:17.962Z,51.11
2023-05-10T05:13:44.711Z,51.27
2023-05-10T05:16:12.417Z,51.07
2023-05-10T05:18:41.466Z,51.24
2023-05-10T05:21:14.737Z,51.32
2023-05-10T05:23:44.021Z,51.54
2023-05-10T05:26:10.759Z,51.38
2023-05-10T05:28:40.074Z,51.47
2023-05-10T05:31:11.976Z,51.66
2023-05-10T05:33:41.126Z,51.41
2023-05-10T05:36:09.324Z,51.30
2023-05-10T05:38:36.339Z,50.86
2023-05-10T05:41:03.674Z,50.62
2023-05-10T05:43:34.566Z,50.55
2023-05-10T05:46:04.317Z,50.82
2023-05-10T05:48:31.281Z,50.31
2023-05-10T05:50:58.077Z,50.25
2023-05-10T05:53:27.231Z,50.56
2023-05-10T05:55:58.169Z,50.47
2023-05-10T05:58:25.272Z,50.96
2023-05-10T06:00:53.010Z,50.84
2023-05-10T06:03:19.901Z,51.22
2023-05-10T06:05:51.569Z,51.38
2023-05-10T06:08:18.372Z,51.06
2023-05-10T06:10:45.614Z,51.19
2023-05-10T06:13:14.664Z,51.19
2023-05-10T06:15:41.364Z,50.96
2023-05-10T06:18:08.101Z,51.07
2023-05-10T06:20:34.837Z,51.42
2023-05-10T06:23:01.476Z,51.30
2023-05-10T06:25:30.320Z,51.70
2023-05-10T06:27:59.005Z,51.85
2023-05-10T06:30:28.541Z,51.76
2023-05-10T06:32:57.733Z,50.87
2023-05-10T06:35:27.162Z,50.47
2023-05-10T06:37:54.211Z,50.22
2023-05-10T06:40:23.334Z,49.95
2023-05-10T06:42:52.364Z,50.02
2023-05-10T06:45:19.547Z,49.97
2023-05-10T06:47:47.236Z,50.23
2023-05-10T06:50:16.435Z,49.86
2023-05-10T06:52:44.218Z,50.51
2023-05-10T06:55:13.587Z,50.91
2023-05-10T06:57:40.360Z,50.65
2023-05-10T07:00:07.400Z,50.64
2023-05-10T07:02:36.597Z,51.01
2023-05-10T07:05:03.765Z,50.72
2023-05-10T07:07:30.874Z,50.43
2023-05-10T07:10:01.103Z,49.85
2023-05-10T07:12:27.855Z,49.51
2023-05-10T07:14:59.323Z,49.79
2023-05-10T07:17:26.232Z,50.14
2023-05-10T07:19:52.997Z,50.18
2023-05-10T07:22:22.547Z,49.91
2023-05-10T07:24:49.503Z,49.71
2023-05-10T07:27:16.079Z,48.67
2023-05-10T07:29:43.178Z,48.54
2023-05-10T07:32:12.192Z,48.60
2023-05-10T07:34:41.319Z,48.18
2023-05-10T07:37:08.437Z,47.84
2023-05-10T07:39:35.478Z,47.43
2023-05-10T07:42:02.075Z,47.20
2023-05-10T07:44:28.653Z,47.68
2023-05-10T07:46:57.651Z,47.32
2023-05-10T07:49:27.259Z,46.90
2023-05-10T07:51:56.458Z,46.77
2023-05-10T07:54:23.459Z,46.90
2023-05-10T07:56:52.706Z,47.06
2023-05-10T07:59:19.681Z,46.64
2023-05-10T08:01:46.744Z,46.74
2023-05-10T08:04:18.645Z,45.75
2023-05-10T08:06:48.296Z,45.69
2023-05-10T08:09:16.996Z,45.91
2023-05-10T08:11:46.828Z,45.89
2023-05-10T08:14:15.878Z,44.81
2023-05-10T08:16:45.431Z,44.71
2023-05-10T08:19:12.183Z,44.31
2023-05-10T08:21:39.244Z,43.77
2023-05-10T08:24:05.999Z,43.85
2023-05-10T08:26:33.469Z,43.59
2023-05-10T08:29:00.134Z,44.15
2023-05-10T08:31:26.842Z,43.63
2023-05-10T08:33:53.763Z,43.09
2023-05-10T08:36:25.427Z,42.79
2023-05-10T08:38:53.209Z,42.39
2023-05-10T08:41:22.802Z,42.60
2023-05-10T08:43:51.818Z,42.30
2023-05-10T08:46:19.318Z,42.40
2023-05-10T08:48:46.618Z,42.21
2023-05-10T08:51:20.660Z,42.09
2023-05-10T08:53:47.296Z,41.42
2023-05-10T08:56:14.005Z,41.81
2023-05-10T08:58:46.209Z,40.71
2023-05-10T09:01:12.953Z,41.58
2023-05-10T09:03:39.688Z,41.33
2023-05-10T09:06:08.960Z,40.56
2023-05-10T09:08:35.860Z,40.92
2023-05-10T09:11:02.766Z,40.49
2023-05-10T09:13:29.388Z,40.39
2023-05-10T09:15:56.388Z,39.85
2023-05-10T09:18:27.831Z,40.19
2023-05-10T09:20:54.768Z,38.93
2023-05-10T09:23:21.618Z,38.95
2023-05-10T09:25:50.508Z,39.79
2023-05-10T09:28:19.638Z,40.10
2023-05-10T09:30:46.409Z,39.68
2023-05-10T09:33:13.216Z,39.46
2023-05-10T09:35:41.207Z,38.14
2023-05-10T09:38:07.902Z,37.61
2023-05-10T09:40:34.732Z,38.11
2023-05-10T09:43:05.090Z,38.44
2023-05-10T09:45:32.303Z,38.69
2023-05-10T09:47:59.873Z,37.73
2023-05-10T09:50:26.725Z,37.12
2023-05-10T09:53:00.874Z,37.12
2023-05-10T09:55:39.906Z,36.90
2023-05-10T09:58:10.515Z,37.53
2023-05-10T10:00:37.890Z,37.67
2023-05-10T10:03:07.396Z,37.45
2023-05-10T10:05:34.901Z,36.98
2023-05-10T10:08:04.711Z,36.77
2023-05-10T10:10:32.184Z,36.59
2023-05-10T10:12:58.982Z,37.09
2023-05-10T10:15:30.238Z,36.65
2023-05-10T10:17:57.089Z,35.58
2023-05-10T10:20:26.521Z,35.61
2023-05-10T10:22:53.773Z,36.52
2023-05-10T10:25:21.182Z,35.88
2023-05-10T10:27:54.139Z,35.32
2023-05-10T10:30:30.715Z,34.82
2023-05-10T10:33:13.265Z,32.75
2023-05-10T10:35:46.623Z,34.75
2023-05-10T10:38:18.816Z,35.08
2023-05-10T10:40:50.471Z,35.33
2023-05-10T10:43:28.249Z,35.01
2023-05-10T10:46:16.204Z,34.62
2023-05-10T10:48:52.742Z,34.06
2023-05-10T10:51:21.295Z,33.62
2023-05-10T10:53:48.857Z,34.13
2023-05-10T10:56:16.910Z,33.51
2023-05-10T10:58:43.506Z,32.26
2023-05-10T11:01:19.451Z,32.19
2023-05-10T11:04:01.579Z,31.73
2023-05-10T11:06:35.521Z,31.39
2023-05-10T11:09:12.421Z,30.42
2023-05-10T11:11:59.180Z,30.85
2023-05-10T11:14:25.840Z,30.20
2023-05-10T11:16:55.045Z,30.16
2023-05-10T11:19:21.673Z,29.37
2023-05-10T11:21:49.242Z,31.69
2023-05-10T11:24:23.090Z,31.98
2023-05-10T11:26:54.811Z,32.37
2023-05-10T11:29:21.515Z,31.57
2023-05-10T11:31:50.812Z,31.27
2023-05-10T11:34:26.499Z,31.54
2023-05-10T11:36:56.308Z,32.11
2023-05-10T11:39:31.248Z,32.48
2023-05-10T11:41:58.508Z,32.31
2023-05-10T11:44:30.224Z,31.94
2023-05-10T11:46:59.153Z,32.01
2023-05-10T11:49:25.861Z,32.33
2023-05-10T11:51:52.455Z,32.58
2023-05-10T11:54:19.847Z,32.57
2023-05-10T11:56:46.579Z,32.34
2023-05-10T11:59:14.964Z,32.37
2023-05-10T12:01:49.729Z,32.71
2023-05-10T12:04:16.402Z,32.79
2023-05-10T12:06:43.176Z,32.94
2023-05-10T12:09:09.767Z,33.17
2023-05-10T12:11:43.982Z,33.43
2023-05-10T12:14:11.662Z,33.29
2023-05-10T12:16:41.729Z,32.74
2023-05-10T12:19:11.160Z,31.82
2023-05-10T12:21:42.439Z,30.93
2023-05-10T12:24:11.595Z,30.48
2023-05-10T12:26:56.315Z,31.10
2023-05-10T12:29:23.791Z,30.87
2023-05-10T12:31:59.566Z,30.40
2023-05-10T12:34:34.739Z,30.40
2023-05-10T12:37:04.060Z,30.56
2023-05-10T12:39:43.784Z,30.30
2023-05-10T12:42:10.674Z,30.31
2023-05-10T12:44:37.314Z,30.27
2023-05-10T12:47:03.987Z,28.48
2023-05-10T12:49:30.713Z,26.31
2023-05-10T12:51:57.436Z,26.13
2023-05-10T12:54:26.800Z,26.19
2023-05-10T12:56:55.158Z,26.24
2023-05-10T12:59:21.930Z,27.87
2023-05-10T13:01:51.102Z,28.97
2023-05-10T13:04:17.809Z,28.82
2023-05-10T13:06:47.320Z,28.83
2023-05-10T13:09:13.964Z,29.00
2023-05-10T13:11:40.693Z,28.50
2023-05-10T13:14:15.574Z,28.52
2023-05-10T13:16:42.247Z,28.16
2023-05-10T13:19:12.589Z,26.77
2023-05-10T13:21:39.298Z,26.21
2023-05-10T13:24:08.414Z,26.50
2023-05-10T13:26:37.542Z,25.21
2023-05-10T13:29:04.370Z,23.80
2023-05-10T13:31:31.070Z,23.71
2023-05-10T13:33:57.709Z,23.38
2023-05-10T13:36:24.391Z,23.62
2023-05-10T13:38:51.194Z,24.63
2023-05-10T13:41:20.178Z,24.92
2023-05-10T13:43:46.853Z,25.84
2023-05-10T13:46:13.514Z,26.53
2023-05-10T13:48:40.214Z,26.10
2023-05-10T13:51:11.707Z,26.42
2023-05-10T13:53:38.354Z,25.92
2023-05-10T13:56:04.974Z,25.45
2023-05-10T13:58:31.560Z,24.79
2023-05-10T14:00:58.328Z,23.88
2023-05-10T14:03:25.069Z,23.75
2023-05-10T14:05:54.165Z,22.34
2023-05-10T14:08:27.164Z,20.44
2023-05-10T14:10:56.160Z,21.50
2023-05-10T14:13:22.867Z,20.93
2023-05-10T14:15:49.539Z,21.28
2023-05-10T14:18:20.894Z,21.93
2023-05-10T14:20:52.313Z,22.10
2023-05-10T14:23:24.998Z,20.70
2023-05-10T14:25:56.283Z,20.70
2023-05-10T14:28:26.067Z,20.69
2023-05-10T14:31:00.010Z,21.15
2023-05-10T14:33:36.404Z,21.23
2023-05-10T14:36:12.608Z,20.23
2023-05-10T14:38:42.069Z,20.02
2023-05-10T14:41:10.543Z,20.10
2023-05-10T14:43:40.843Z,20.63
2023-05-10T14:46:07.695Z,21.18
2023-05-10T14:48:34.362Z,20.18
2023-05-10T14:51:00.924Z,19.29
2023-05-10T14:53:33.707Z,17.89
2023-05-10T14:56:02.201Z,19.11
2023-05-10T14:58:28.991Z,19.72
2023-05-10T15:00:58.215Z,20.47
2023-05-10T15:03:30.326Z,21.52
2023-05-10T15:05:59.926Z,22.66
2023-05-10T15:08:29.109Z,22.98
2023-05-10T15:10:56.916Z,23.38
2023-05-10T15:13:23.569Z,24.07
2023-05-10T15:15:50.298Z,24.48
2023-05-10T15:18:21.572Z,24.54
2023-05-10T15:20:48.324Z,24.72
2023-05-10T15:23:19.641Z,25.26
2023-05-10T15:25:46.310Z,25.16
2023-05-10T15:28:13.026Z,25.53
2023-05-10T15:30:39.826Z,25.93
2023-05-10T15:33:06.834Z,26.13
2023-05-10T15:35:34.434Z,26.33
2023-05-10T15:38:01.052Z,26.11
2023-05-10T15:40:30.640Z,26.52
2023-05-10T15:42:57.252Z,26.49
2023-05-10T15:45:28.730Z,26.70
2023-05-10T15:47:57.973Z,26.82
2023-05-10T15:50:27.605Z,27.17
2023-05-10T15:52:54.303Z,27.08
2023-05-10T15:55:21.001Z,27.31
2023-05-10T15:57:50.525Z,27.50
2023-05-10T16:00:17.875Z,27.39
2023-05-10T16:02:44.500Z,27.52
2023-05-10T16:05:14.043Z,27.89
2023-05-10T16:07:42.046Z,28.10
2023-05-10T16:10:10.052Z,28.03
2023-05-10T16:12:39.779Z,28.43
2023-05-10T16:15:08.989Z,28.51
2023-05-10T16:17:36.056Z,28.25
2023-05-10T16:20:05.949Z,28.11
2023-05-10T16:22:35.370Z,28.32
2023-05-10T16:25:05.012Z,28.31
2023-05-10T16:27:34.138Z,28.38
2023-05-10T16:30:03.681Z,28.16
2023-05-10T16:32:33.354Z,28.38
2023-05-10T16:35:00.412Z,28.75
2023-05-10T16:37:27.434Z,28.84
2023-05-10T16:39:56.765Z,28.95
2023-05-10T16:42:28.613Z,29.26
2023-05-10T16:44:55.284Z,29.18
2023-05-10T16:47:27.495Z,29.57
2023-05-10T16:49:54.243Z,29.77
2023-05-10T16:52:21.006Z,29.89
2023-05-10T16:54:47.630Z,30.46
2023-05-10T16:57:16.858Z,30.49
2023-05-10T16:59:43.649Z,30.79
2023-05-10T17:02:13.973Z,31.14
2023-05-10T17:04:40.769Z,30.96
2023-05-10T17:07:09.117Z,31.57
2023-05-10T17:09:35.887Z,31.93
2023-05-10T17:12:05.012Z,32.35
2023-05-10T17:14:31.905Z,32.51
2023-05-10T17:17:05.874Z,32.46
2023-05-10T17:19:35.579Z,32.88
2023-05-10T17:22:04.750Z,33.10
2023-05-10T17:24:31.811Z,32.93
2023-05-10T17:27:00.831Z,33.16
2023-05-10T17:29:31.972Z,33.36
2023-05-10T17:31:59.011Z,33.36
2023-05-10T17:34:25.835Z,33.58
2023-05-10T17:36:52.489Z,33.83
2023-05-10T17:39:24.000Z,33.88
2023-05-10T17:41:50.794Z,34.16
2023-05-10T17:44:17.527Z,33.94
2023-05-10T17:46:44.312Z,34.32
2023-05-10T17:49:10.996Z,34.70
2023-05-10T17:51:37.790Z,35.00
2023-05-10T17:54:07.289Z,34.62
2023-05-10T17:56:33.881Z,34.81
2023-05-10T17:59:02.993Z,34.41
2023-05-10T18:01:29.773Z,34.88
2023-05-10T18:03:56.394Z,34.97
2023-05-10T18:06:23.563Z,35.35
2023-05-10T18:08:52.722Z,34.91
2023-05-10T18:11:19.335Z,35.12
2023-05-10T18:13:45.970Z,35.03
2023-05-10T18:16:17.705Z,35.06
2023-05-10T18:18:44.797Z,35.20
2023-05-10T18:21:14.138Z,35.35
2023-05-10T18:23:40.772Z,35.49
2023-05-10T18:26:10.504Z,35.68
2023-05-10T18:28:39.457Z,35.86
2023-05-10T18:31:06.113Z,36.05
2023-05-10T18:33:38.618Z,36.31
2023-05-10T18:36:05.402Z,36.00
2023-05-10T18:38:34.545Z,36.04
2023-05-10T18:41:01.587Z,36.04
2023-05-10T18:43:30.689Z,36.05
2023-05-10T18:45:57.384Z,36.03
2023-05-10T18:48:26.447Z,36.19
2023-05-10T18:50:53.084Z,36.09
2023-05-10T18:53:24.900Z,36.23
2023-05-10T18:56:00.893Z,36.20
2023-05-10T18:58:27.898Z,36.37
2023-05-10T19:00:58.643Z,36.09
2023-05-10T19:03:27.600Z,36.48
2023-05-10T19:05:57.135Z,36.38
2023-05-10T19:08:23.743Z,36.29
2023-05-10T19:10:50.931Z,36.29
2023-05-10T19:13:17.919Z,36.20
2023-05-10T19:15:44.595Z,36.78
2023-05-10T19:18:15.307Z,36.71
2023-05-10T19:20:42.533Z,36.79
2023-05-10T19:23:10.416Z,37.20
2023-05-10T19:25:37.603Z,36.78
2023-05-10T19:28:11.511Z,36.99
2023-05-10T19:30:38.583Z,36.86
2023-05-10T19:33:10.481Z,37.63
2023-05-10T19:35:40.265Z,37.23
2023-05-10T19:38:07.095Z,37.51
2023-05-10T19:40:34.213Z,37.13
2023-05-10T19:43:00.830Z,37.52
2023-05-10T19:45:30.320Z,37.65
2023-05-10T19:47:57.141Z,37.47
2023-05-10T19:50:23.820Z,37.74
2023-05-10T19:52:51.593Z,37.90
2023-05-10T19:55:26.249Z,38.03
2023-05-10T19:57:53.007Z,38.28
2023-05-10T20:00:20.067Z,38.27
2023-05-10T20:02:46.694Z,38.32
2023-05-10T20:05:13.427Z,38.93
2023-05-10T20:07:39.987Z,39.28
2023-05-10T20:10:06.976Z,39.11
2023-05-10T20:12:33.661Z,39.94
2023-05-10T20:15:00.220Z,39.44
2023-05-10T20:17:29.240Z,39.52
2023-05-10T20:19:55.840Z,40.50
2023-05-10T20:22:22.551Z,39.97
2023-05-10T20:24:49.155Z,39.52
2023-05-10T20:27:16.094Z,39.94
2023-05-10T20:29:45.168Z,39.98
2023-05-10T20:32:14.385Z,39.94
2023-05-10T20:34:45.815Z,40.33
2023-05-10T20:37:13.432Z,39.64
2023-05-10T20:39:42.450Z,40.21
2023-05-10T20:42:09.170Z,40.26
2023-05-10T20:44:36.025Z,40.54
2023-05-10T20:47:02.682Z,39.90
2023-05-10T20:49:31.791Z,40.27
2023-05-10T20:51:58.455Z,40.78
2023-05-10T20:54:25.101Z,40.96
2023-05-10T20:56:51.687Z,40.65
2023-05-10T20:59:18.735Z,40.54
2023-05-10T21:01:49.884Z,41.56
2023-05-10T21:04:19.437Z,41.28
2023-05-10T21:06:46.188Z,41.43
2023-05-10T21:09:15.761Z,41.62
2023-05-10T21:11:44.729Z,41.51
2023-05-10T21:14:11.417Z,41.21
2023-05-10T21:16:38.199Z,41.20
2023-05-10T21:19:07.706Z,40.94
2023-05-10T21:21:36.872Z,41.28
2023-05-10T21:24:05.914Z,41.68
2023-05-10T21:26:32.593Z,41.53
2023-05-10T21:29:01.803Z,41.28
2023-05-10T21:31:28.782Z,41.62
2023-05-10T21:33:55.409Z,41.60
2023-05-10T21:36:22.110Z,41.79
2023-05-10T21:38:50.878Z,41.60
2023-05-10T21:41:17.627Z,41.96
2023-05-10T21:43:44.180Z,41.97
2023-05-10T21:46:13.064Z,41.59
2023-05-10T21:48:39.925Z,41.47
2023-05-10T21:51:07.215Z,41.47
2023-05-10T21:53:34.129Z,41.74
2023-05-10T21:56:00.819Z,41.58
2023-05-10T21:58:27.778Z,41.31
2023-05-10T22:00:54.627Z,41.22
2023-05-10T22:03:26.656Z,41.11
2023-05-10T22:05:53.440Z,41.37
2023-05-10T22:08:20.105Z,41.69
2023-05-10T22:10:46.815Z,41.60
2023-05-10T22:13:13.525Z,40.81
2023-05-10T22:15:40.207Z,41.02
2023-05-10T22:18:06.848Z,40.78
2023-05-10T22:20:35.810Z,40.57
2023-05-10T22:23:02.803Z,40.84
2023-05-10T22:25:29.372Z,41.28
2023-05-10T22:27:55.978Z,40.73
2023-05-10T22:30:23.009Z,40.65
2023-05-10T22:32:49.586Z,41.25
2023-05-10T22:35:18.630Z,41.24
2023-05-10T22:37:50.675Z,41.33
2023-05-10T22:40:17.553Z,41.53
2023-05-10T22:42:44.311Z,40.85
2023-05-10T22:45:13.774Z,40.98
2023-05-10T22:47:42.826Z,41.49
2023-05-10T22:50:11.866Z,41.30
2023-05-10T22:52:41.286Z,41.68
2023-05-10T22:55:08.460Z,41.78
2023-05-10T22:57:37.601Z,41.68
2023-05-10T23:00:05.350Z,41.86
2023-05-10T23:02:32.174Z,41.87
2023-05-10T23:05:01.207Z,42.08
2023-05-10T23:07:30.211Z,42.05
2023-05-10T23:09:56.966Z,42.00
2023-05-10T23:12:23.756Z,41.66
2023-05-10T23:14:50.661Z,41.91
2023-05-10T23:17:17.392Z,42.35
2023-05-10T23:19:46.362Z,42.69
2023-05-10T23:22:15.103Z,42.21
2023-05-10T23:24:44.194Z,42.12
2023-05-10T23:27:11.363Z,42.56
2023-05-10T23:29:38.006Z,41.75
2023-05-10T23:32:04.830Z,42.53
2023-05-10T23:34:32.322Z,40.86
2023-05-10T23:37:01.523Z,40.52
2023-05-10T23:39:28.324Z,40.62
2023-05-10T23:41:57.382Z,40.48
2023-05-10T23:44:26.876Z,40.66
2023-05-10T23:46:53.566Z,40.74
2023-05-10T23:49:22.876Z,40.71
2023-05-10T23:51:52.480Z,40.59
2023-05-10T23:54:24.454Z,40.38
2023-05-10T23:56:51.622Z,40.61
2023-05-10T23:59:20.759Z,40.69
